Time;durP1;ratioP1;P1;durP2;ratioP2;P2;SDS_P1;SDS_P2;PMS_P1;PMS_P2;Temp;Humidity;BMP_temperature;BMP_pressure;BME280_temperature;BME280_humidity;BME280_pressure;Samples;Min_cycle;Max_cycle;Signal;HPM_P1;HPM_P2
2021/09/20 00:01:15;;;;;;;10.20;7.20;;;;;;;;;;5137659;28;20429;-55
2021/09/20 00:04:06;;;;;;;8.73;6.47;;;;;;;;;;5137375;28;20461;-57
2021/09/20 00:06:35;;;;;;;8.10;6.97;;;;;;;;;;5137531;28;20443;-50
2021/09/20 00:09:02;;;;;;;8.67;7.07;;;;;;;;;;5137787;28;20497;-59
2021/09/20 00:11:29;;;;;;;12.50;6.30;;;;;;;;;;5137438;28;20459;-54
2021/09/20 00:13:57;;;;;;;10.67;6.20;;;;;;;;;;5136650;28;20524;-56
2021/09/20 00:16:53;;;;;;;9.80;7.77;;;;;;;;;;5137265;28;20434;-54
2021/09/20 00:19:21;;;;;;;9.03;6.90;;;;;;;;;;5137309;28;20466;-56
2021/09/20 00:21:49;;;;;;;7.60;6.80;;;;;;;;;;5136877;28;20463;-59
2021/09/20 00:24:26;;;;;;;7.93;6.93;;;;;;;;;;5136960;28;20507;-52
2021/09/20 00:26:53;;;;;;;8.03;6.80;;;;;;;;;;5137190;28;20564;-58
2021/09/20 00:32:08;;;;;;;10.20;7.67;;;;;;;;;;5126316;28;20446;-56
2021/09/20 00:34:35;;;;;;;7.63;6.77;;;;;;;;;;5141331;28;20455;-52
2021/09/20 00:37:04;;;;;;;9.23;7.93;;;;;;;;;;5141309;28;20435;-55
2021/09/20 00:39:32;;;;;;;9.20;7.70;;;;;;;;;;5141050;28;20541;-56
2021/09/20 00:42:00;;;;;;;9.40;7.90;;;;;;;;;;5141224;28;20580;-56
2021/09/20 00:44:37;;;;;;;9.53;8.00;;;;;;;;;;5141281;28;20522;-57
2021/09/20 00:47:05;;;;;;;8.17;6.50;;;;;;;;;;5153056;27;20519;-56
2021/09/20 00:49:32;;;;;;;10.30;7.10;;;;;;;;;;5161775;27;20491;-59
2021/09/20 00:52:21;;;;;;;9.13;7.00;;;;;;;;;;5161920;27;20463;-59
2021/09/20 00:54:59;;;;;;;11.90;7.63;;;;;;;;;;5161604;27;20512;-55
2021/09/20 00:57:38;;;;;;;7.97;6.83;;;;;;;;;;5162076;27;20508;-57
2021/09/20 01:00:06;;;;;;;10.73;7.90;;;;;;;;;;5161088;27;20440;-50
2021/09/20 01:02:36;;;;;;;9.50;8.37;;;;;;;;;;5161572;27;20430;-50
2021/09/20 01:05:07;;;;;;;7.90;6.30;;;;;;;;;;5161152;27;20441;-55
2021/09/20 01:07:35;;;;;;;13.33;6.70;;;;;;;;;;5161033;27;20457;-59
2021/09/20 01:10:03;;;;;;;11.80;7.37;;;;;;;;;;5161602;27;20455;-57
2021/09/20 01:12:35;;;;;;;10.00;7.33;;;;;;;;;;5160492;27;20455;-57
2021/09/20 01:15:04;;;;;;;9.57;8.57;;;;;;;;;;5160648;27;20481;-61
2021/09/20 01:17:32;;;;;;;12.43;8.27;;;;;;;;;;5160602;27;20453;-52
2021/09/20 01:20:14;;;;;;;11.50;8.03;;;;;;;;;;5161114;27;20461;-57
2021/09/20 01:22:43;;;;;;;9.40;7.63;;;;;;;;;;5160580;27;20487;-60
2021/09/20 01:25:12;;;;;;;9.10;7.30;;;;;;;;;;5160865;27;20432;-53
2021/09/20 01:28:01;;;;;;;7.77;6.60;;;;;;;;;;5160683;27;20484;-58
2021/09/20 01:30:28;;;;;;;9.37;7.03;;;;;;;;;;5160467;27;20474;-59
2021/09/20 01:32:56;;;;;;;11.70;7.20;;;;;;;;;;5161224;27;20463;-55
2021/09/20 01:35:24;;;;;;;8.07;6.60;;;;;;;;;;5160802;27;20477;-56
2021/09/20 01:37:52;;;;;;;8.00;6.77;;;;;;;;;;5161015;27;20495;-58
2021/09/20 01:43:24;;;;;;;8.60;7.27;;;;;;;;;;5161043;27;20398;-51
2021/09/20 01:45:51;;;;;;;9.40;7.40;;;;;;;;;;5160788;27;20518;-58
2021/09/20 01:48:25;;;;;;;11.50;7.17;;;;;;;;;;5160304;27;20454;-59
2021/09/20 01:50:52;;;;;;;8.30;7.40;;;;;;;;;;5160174;27;20437;-59
2021/09/20 01:53:19;;;;;;;13.10;7.50;;;;;;;;;;5160296;27;20767;-59
2021/09/20 01:55:48;;;;;;;14.83;7.43;;;;;;;;;;5160122;27;20557;-60
2021/09/20 01:58:16;;;;;;;10.80;7.40;;;;;;;;;;5160322;27;20518;-56
2021/09/20 02:00:47;;;;;;;11.63;7.57;;;;;;;;;;5160619;27;20434;-56
2021/09/20 02:03:14;;;;;;;12.13;7.57;;;;;;;;;;5160091;27;20445;-54
2021/09/20 02:05:42;;;;;;;9.57;7.07;;;;;;;;;;5159889;27;20509;-56
2021/09/20 02:08:09;;;;;;;9.43;7.60;;;;;;;;;;5159872;27;20475;-57
2021/09/20 02:10:40;;;;;;;10.17;8.07;;;;;;;;;;5159927;27;20440;-58
2021/09/20 02:13:08;;;;;;;9.60;6.93;;;;;;;;;;5160115;27;20482;-58
2021/09/20 02:15:35;;;;;;;9.83;7.17;;;;;;;;;;5159669;27;20613;-58
2021/09/20 02:18:17;;;;;;;9.30;7.00;;;;;;;;;;5159703;27;20454;-57
2021/09/20 02:20:45;;;;;;;9.60;7.67;;;;;;;;;;5160331;27;20457;-57
2021/09/20 02:23:14;;;;;;;9.70;7.80;;;;;;;;;;5160295;27;20449;-55
2021/09/20 02:28:45;;;;;;;12.00;7.80;;;;;;;;;;5159441;27;20424;-58
2021/09/20 02:31:12;;;;;;;8.37;7.30;;;;;;;;;;5159921;27;20486;-54
2021/09/20 02:36:45;;;;;;;9.77;8.00;;;;;;;;;;5121985;27;20480;-57
2021/09/20 02:39:12;;;;;;;9.60;7.20;;;;;;;;;;5118119;28;20459;-58
2021/09/20 02:41:55;;;;;;;9.60;7.80;;;;;;;;;;5118617;28;20455;-58
2021/09/20 02:44:22;;;;;;;10.13;8.50;;;;;;;;;;5137328;28;20482;-53
2021/09/20 02:46:50;;;;;;;13.43;8.07;;;;;;;;;;5138377;28;20446;-57
2021/09/20 02:49:17;;;;;;;10.90;7.77;;;;;;;;;;5138603;28;20880;-52
2021/09/20 02:51:46;;;;;;;10.13;7.43;;;;;;;;;;5138864;28;20466;-58
2021/09/20 02:54:20;;;;;;;14.73;8.20;;;;;;;;;;5138518;28;20435;-57
2021/09/20 02:56:47;;;;;;;9.77;7.57;;;;;;;;;;5138302;28;20450;-60
2021/09/20 02:59:15;;;;;;;10.17;6.63;;;;;;;;;;5138053;28;20454;-57
2021/09/20 03:01:53;;;;;;;8.07;7.20;;;;;;;;;;5138065;28;20491;-57
2021/09/20 03:04:20;;;;;;;8.90;7.57;;;;;;;;;;5136292;28;20489;-59
2021/09/20 03:06:49;;;;;;;9.43;7.60;;;;;;;;;;5138298;28;20461;-57
2021/09/20 03:09:17;;;;;;;9.30;7.57;;;;;;;;;;5138903;28;20572;-59
2021/09/20 03:11:44;;;;;;;10.00;7.63;;;;;;;;;;5138095;28;20735;-57
2021/09/20 03:14:13;;;;;;;10.07;7.30;;;;;;;;;;5137566;28;20438;-58
2021/09/20 03:17:15;;;;;;;9.67;7.70;;;;;;;;;;5138043;28;20734;-57
2021/09/20 03:19:42;;;;;;;9.73;7.70;;;;;;;;;;5135935;28;20499;-60
2021/09/20 03:22:11;;;;;;;10.30;8.13;;;;;;;;;;5137885;28;20442;-51
2021/09/20 03:24:46;;;;;;;7.77;6.57;;;;;;;;;;5138156;28;20466;-57
2021/09/20 03:27:14;;;;;;;8.63;6.90;;;;;;;;;;5137409;28;20442;-56
2021/09/20 03:29:41;;;;;;;13.07;8.37;;;;;;;;;;5137499;28;20484;-55
2021/09/20 03:32:19;;;;;;;11.67;8.00;;;;;;;;;;5137661;28;20434;-56
2021/09/20 03:34:46;;;;;;;10.27;7.40;;;;;;;;;;5136769;28;20511;-55
2021/09/20 03:37:15;;;;;;;9.73;8.30;;;;;;;;;;5124427;27;20458;-56
2021/09/20 03:39:42;;;;;;;9.20;7.00;;;;;;;;;;5137478;28;20462;-58
2021/09/20 03:42:10;;;;;;;11.57;9.80;;;;;;;;;;5137960;28;20483;-56
2021/09/20 03:44:37;;;;;;;9.13;6.77;;;;;;;;;;5137726;28;20524;-58
2021/09/20 03:47:05;;;;;;;12.53;7.90;;;;;;;;;;5137506;28;20454;-59
2021/09/20 03:49:33;;;;;;;13.53;9.10;;;;;;;;;;5137366;28;20462;-55
2021/09/20 03:52:05;;;;;;;9.30;7.47;;;;;;;;;;5137513;28;20494;-59
2021/09/20 03:57:52;;;;;;;12.90;7.70;;;;;;;;;;5136327;28;20458;-56
2021/09/20 04:00:22;;;;;;;10.07;7.13;;;;;;;;;;5136620;28;20451;-58
2021/09/20 04:02:50;;;;;;;12.90;9.53;;;;;;;;;;5136948;28;20515;-55
2021/09/20 04:08:27;;;;;;;11.00;7.73;;;;;;;;;;5117363;28;20639;-57
2021/09/20 04:11:02;;;;;;;8.37;7.47;;;;;;;;;;5132266;28;20447;-57
2021/09/20 04:13:50;;;;;;;13.53;7.77;;;;;;;;;;5136581;28;20461;-52
2021/09/20 04:16:20;;;;;;;10.30;8.27;;;;;;;;;;5136932;28;20469;-55
2021/09/20 04:21:50;;;;;;;8.23;7.00;;;;;;;;;;5114012;28;20442;-58
2021/09/20 04:24:18;;;;;;;13.60;8.23;;;;;;;;;;5116413;28;20457;-59
2021/09/20 04:26:53;;;;;;;9.33;6.83;;;;;;;;;;5133490;28;20434;-55
2021/09/20 04:29:26;;;;;;;13.83;8.10;;;;;;;;;;5134677;28;20521;-64
2021/09/20 04:31:56;;;;;;;10.53;7.33;;;;;;;;;;5128896;28;20744;-56
2021/09/20 04:34:27;;;;;;;10.67;7.63;;;;;;;;;;5136218;28;20450;-60
2021/09/20 04:36:54;;;;;;;9.77;7.13;;;;;;;;;;5136055;28;20520;-60
2021/09/20 04:39:40;;;;;;;12.70;7.80;;;;;;;;;;5136245;28;20411;-53
2021/09/20 04:42:14;;;;;;;13.57;8.57;;;;;;;;;;5136735;28;20442;-59
2021/09/20 04:44:41;;;;;;;12.17;8.73;;;;;;;;;;5136402;28;20471;-55
2021/09/20 04:47:10;;;;;;;11.63;8.00;;;;;;;;;;5136518;28;20456;-56
2021/09/20 04:49:38;;;;;;;11.30;7.33;;;;;;;;;;5119083;28;20475;-57
2021/09/20 04:52:06;;;;;;;9.30;7.93;;;;;;;;;;5121729;28;20482;-60
2021/09/20 04:54:35;;;;;;;10.80;8.00;;;;;;;;;;5115608;28;20432;-53
2021/09/20 04:57:12;;;;;;;10.03;7.13;;;;;;;;;;5115161;28;20501;-58
2021/09/20 04:59:40;;;;;;;11.00;7.63;;;;;;;;;;5115890;28;20454;-59
2021/09/20 05:02:08;;;;;;;9.27;7.13;;;;;;;;;;5115467;28;20496;-56
2021/09/20 05:04:36;;;;;;;9.93;7.93;;;;;;;;;;5117169;28;20455;-64
2021/09/20 05:07:03;;;;;;;11.00;7.90;;;;;;;;;;5116123;28;20435;-60
2021/09/20 05:09:32;;;;;;;9.83;7.80;;;;;;;;;;5115626;28;20431;-57
2021/09/20 05:12:00;;;;;;;11.23;7.57;;;;;;;;;;5117163;28;20464;-48
2021/09/20 05:14:27;;;;;;;12.37;8.03;;;;;;;;;;5115423;28;20455;-58
2021/09/20 05:17:23;;;;;;;10.83;7.70;;;;;;;;;;5117208;28;20546;-58
2021/09/20 05:19:54;;;;;;;8.07;6.50;;;;;;;;;;5131196;28;20443;-58
2021/09/20 05:22:29;;;;;;;10.87;7.87;;;;;;;;;;5122078;28;20480;-61
2021/09/20 05:24:56;;;;;;;10.10;7.43;;;;;;;;;;5125409;28;20458;-60
2021/09/20 05:27:24;;;;;;;11.03;8.10;;;;;;;;;;5125477;28;20435;-58
2021/09/20 05:29:54;;;;;;;12.13;8.00;;;;;;;;;;5118600;28;20584;-55
2021/09/20 05:32:35;;;;;;;7.80;6.33;;;;;;;;;;5119109;28;20447;-59
2021/09/20 05:35:17;;;;;;;12.23;6.87;;;;;;;;;;5119236;28;20488;-59
2021/09/20 05:37:48;;;;;;;8.33;6.80;;;;;;;;;;5114710;28;20473;-57
2021/09/20 05:40:16;;;;;;;12.70;7.37;;;;;;;;;;5108361;28;20535;-59
2021/09/20 05:42:55;;;;;;;9.40;6.90;;;;;;;;;;5098532;28;20452;-53
2021/09/20 05:45:38;;;;;;;10.00;6.67;;;;;;;;;;5104899;28;20486;-58
2021/09/20 05:48:16;;;;;;;8.00;6.00;;;;;;;;;;5097063;28;20460;-59
2021/09/20 05:50:59;;;;;;;9.77;6.50;;;;;;;;;;5097663;28;20490;-57
2021/09/20 05:53:57;;;;;;;8.70;6.50;;;;;;;;;;5098262;28;20462;-53
2021/09/20 05:56:28;;;;;;;20.87;9.10;;;;;;;;;;5104670;28;20502;-59
2021/09/20 05:58:56;;;;;;;10.60;6.87;;;;;;;;;;5103843;28;20456;-54
2021/09/20 06:01:24;;;;;;;11.43;6.63;;;;;;;;;;5096985;28;20491;-58
2021/09/20 06:03:51;;;;;;;10.60;7.37;;;;;;;;;;5097862;28;20464;-60
2021/09/20 06:09:25;;;;;;;7.93;6.10;;;;;;;;;;5115210;28;20434;-55
2021/09/20 06:11:56;;;;;;;11.93;7.20;;;;;;;;;;5106678;28;20469;-56
2021/09/20 06:14:36;;;;;;;9.87;6.50;;;;;;;;;;5110012;28;20542;-52
2021/09/20 06:17:11;;;;;;;12.03;5.70;;;;;;;;;;5117131;28;20705;-58
2021/09/20 06:19:40;;;;;;;7.70;5.80;;;;;;;;;;5116625;28;20495;-57
2021/09/20 06:22:15;;;;;;;7.40;5.60;;;;;;;;;;5117462;28;20539;-59
2021/09/20 06:24:45;;;;;;;9.17;5.93;;;;;;;;;;5117207;28;20450;-52
2021/09/20 06:27:13;;;;;;;10.37;6.20;;;;;;;;;;5117129;28;20424;-59
2021/09/20 06:29:41;;;;;;;10.60;6.33;;;;;;;;;;5111834;28;20549;-56
2021/09/20 06:32:08;;;;;;;7.80;6.20;;;;;;;;;;5137441;28;20458;-59
2021/09/20 06:34:40;;;;;;;10.53;7.13;;;;;;;;;;5137559;28;20454;-58
2021/09/20 06:37:10;;;;;;;9.50;6.13;;;;;;;;;;5127374;28;20733;-57
2021/09/20 06:39:38;;;;;;;10.77;6.20;;;;;;;;;;5118165;28;20436;-62
2021/09/20 06:45:13;;;;;;;12.23;8.63;;;;;;;;;;5128029;27;20463;-56
2021/09/20 06:47:42;;;;;;;8.90;6.67;;;;;;;;;;5156992;27;20434;-53
2021/09/20 06:53:12;;;;;;;12.00;7.50;;;;;;;;;;5133901;28;20557;-53
2021/09/20 06:55:41;;;;;;;6.53;5.20;;;;;;;;;;5136273;28;20488;-56
2021/09/20 06:58:10;;;;;;;11.50;5.40;;;;;;;;;;5128901;28;20528;-54
2021/09/20 07:00:39;;;;;;;8.03;6.03;;;;;;;;;;5116478;28;20455;-58
2021/09/20 07:03:06;;;;;;;8.83;6.70;;;;;;;;;;5116306;28;20516;-58
2021/09/20 07:08:38;;;;;;;8.60;5.53;;;;;;;;;;5133815;28;20557;-56
2021/09/20 07:11:06;;;;;;;12.10;5.93;;;;;;;;;;5136323;28;20496;-55
2021/09/20 07:13:35;;;;;;;7.60;5.03;;;;;;;;;;5134879;28;20462;-60
2021/09/20 07:16:04;;;;;;;9.70;5.87;;;;;;;;;;5126046;28;20495;-56
2021/09/20 07:18:31;;;;;;;8.07;5.80;;;;;;;;;;5115701;28;20515;-57
2021/09/20 07:21:05;;;;;;;9.67;5.67;;;;;;;;;;5116482;28;20451;-58
2021/09/20 07:23:32;;;;;;;7.43;4.80;;;;;;;;;;5121925;28;20449;-59
2021/09/20 07:26:00;;;;;;;13.20;7.07;;;;;;;;;;5136353;28;20469;-56
2021/09/20 07:28:30;;;;;;;7.57;6.03;;;;;;;;;;5136492;28;20461;-53
2021/09/20 07:30:58;;;;;;;9.50;6.20;;;;;;;;;;5134796;28;20489;-56
2021/09/20 07:33:28;;;;;;;7.67;5.03;;;;;;;;;;5136116;28;20450;-60
2021/09/20 07:36:09;;;;;;;9.70;6.60;;;;;;;;;;5118677;28;20491;-55
2021/09/20 07:38:37;;;;;;;6.77;5.27;;;;;;;;;;5115149;27;20455;-60
2021/09/20 07:41:05;;;;;;;9.20;5.50;;;;;;;;;;5115561;27;20436;-55
2021/09/20 07:43:45;;;;;;;8.73;5.27;;;;;;;;;;5116034;27;20439;-53
2021/09/20 07:46:24;;;;;;;14.17;6.07;;;;;;;;;;5120710;28;20454;-54
2021/09/20 07:48:56;;;;;;;7.10;6.40;;;;;;;;;;5136850;28;20446;-55
2021/09/20 07:51:25;;;;;;;7.77;5.33;;;;;;;;;;5127087;28;20553;-62
2021/09/20 07:54:08;;;;;;;7.27;5.70;;;;;;;;;;5116090;28;20465;-55
2021/09/20 07:56:38;;;;;;;7.80;5.70;;;;;;;;;;5113251;28;20478;-57
2021/09/20 07:59:08;;;;;;;6.13;4.73;;;;;;;;;;5130974;28;20445;-56
2021/09/20 08:01:49;;;;;;;7.63;6.00;;;;;;;;;;5135517;28;20453;-56
2021/09/20 08:04:19;;;;;;;7.60;5.20;;;;;;;;;;5134938;27;20462;-57
2021/09/20 08:06:48;;;;;;;7.90;5.83;;;;;;;;;;5135559;28;20438;-56
2021/09/20 08:09:16;;;;;;;8.00;6.40;;;;;;;;;;5135196;28;20450;-60
2021/09/20 08:11:43;;;;;;;6.73;5.33;;;;;;;;;;5134597;28;20472;-55
2021/09/20 08:14:24;;;;;;;6.93;5.07;;;;;;;;;;5134622;28;20439;-55
2021/09/20 08:16:52;;;;;;;7.70;6.10;;;;;;;;;;5135058;28;20478;-56
2021/09/20 08:19:21;;;;;;;8.70;5.40;;;;;;;;;;5135146;28;20438;-60
2021/09/20 08:22:03;;;;;;;7.13;6.00;;;;;;;;;;5134933;28;20478;-57
2021/09/20 08:24:30;;;;;;;7.90;5.20;;;;;;;;;;5135303;28;20454;-60
2021/09/20 08:27:00;;;;;;;6.90;5.17;;;;;;;;;;5135305;28;20438;-55
2021/09/20 08:29:38;;;;;;;11.10;5.40;;;;;;;;;;5135332;28;20480;-57
2021/09/20 08:32:07;;;;;;;6.33;5.47;;;;;;;;;;5094026;28;20439;-56
2021/09/20 08:34:54;;;;;;;10.23;5.80;;;;;;;;;;5094636;28;20456;-58
2021/09/20 08:37:40;;;;;;;7.20;5.20;;;;;;;;;;5093102;28;20495;-56
2021/09/20 08:40:08;;;;;;;7.10;5.57;;;;;;;;;;5093443;28;20452;-60
2021/09/20 08:42:37;;;;;;;8.53;5.80;;;;;;;;;;5105237;28;20439;-57
2021/09/20 08:45:12;;;;;;;8.17;5.00;;;;;;;;;;5113265;28;20465;-58
2021/09/20 08:47:45;;;;;;;6.53;5.30;;;;;;;;;;5107268;28;20466;-58
2021/09/20 08:50:22;;;;;;;5.93;4.87;;;;;;;;;;5094135;28;20443;-54
2021/09/20 08:53:04;;;;;;;6.80;4.67;;;;;;;;;;5110947;28;20419;-59
2021/09/20 08:55:43;;;;;;;6.37;5.27;;;;;;;;;;5103202;28;20538;-54
2021/09/20 08:58:12;;;;;;;5.97;5.13;;;;;;;;;;5101913;28;20501;-56
2021/09/20 09:00:39;;;;;;;6.03;5.27;;;;;;;;;;5103025;28;20456;-54
2021/09/20 09:03:06;;;;;;;6.20;4.60;;;;;;;;;;5097901;28;20460;-53
2021/09/20 09:05:49;;;;;;;5.80;4.60;;;;;;;;;;5098625;28;20592;-57
2021/09/20 09:08:19;;;;;;;6.27;4.67;;;;;;;;;;5110189;28;20482;-60
2021/09/20 09:11:03;;;;;;;7.00;4.73;;;;;;;;;;5105544;28;20444;-60
2021/09/20 09:13:35;;;;;;;8.30;4.90;;;;;;;;;;5078406;28;20476;-57
2021/09/20 09:16:14;;;;;;;7.43;5.17;;;;;;;;;;5097323;28;20477;-51
2021/09/20 09:19:04;;;;;;;6.83;5.10;;;;;;;;;;5096914;28;20448;-60
2021/09/20 09:21:36;;;;;;;8.73;5.40;;;;;;;;;;5119779;28;20493;-50
2021/09/20 09:24:05;;;;;;;6.50;4.67;;;;;;;;;;5123175;28;20445;-52
2021/09/20 09:26:32;;;;;;;7.43;4.60;;;;;;;;;;5122007;28;20473;-56
2021/09/20 09:29:13;;;;;;;8.10;4.83;;;;;;;;;;5139657;28;20467;-59
2021/09/20 09:34:53;;;;;;;6.60;4.57;;;;;;;;;;5118355;28;20422;-55
2021/09/20 09:37:23;;;;;;;8.43;6.83;;;;;;;;;;5132457;28;20566;-63
2021/09/20 09:40:10;;;;;;;10.30;5.83;;;;;;;;;;5137783;28;20483;-58
2021/09/20 09:42:51;;;;;;;8.90;5.20;;;;;;;;;;5138571;28;20471;-52
2021/09/20 09:45:37;;;;;;;7.33;4.60;;;;;;;;;;5138678;28;20723;-59
2021/09/20 09:48:12;;;;;;;5.47;4.50;;;;;;;;;;5118477;28;20503;-54
2021/09/20 09:50:42;;;;;;;6.40;5.20;;;;;;;;;;5128807;28;20466;-57
2021/09/20 09:53:34;;;;;;;7.97;5.40;;;;;;;;;;5121788;28;20442;-53
2021/09/20 09:56:17;;;;;;;7.50;4.90;;;;;;;;;;5108925;28;20515;-54
2021/09/20 09:58:52;;;;;;;5.93;4.57;;;;;;;;;;5096993;28;20436;-58
2021/09/20 10:01:36;;;;;;;5.97;5.03;;;;;;;;;;5096348;28;20596;-60
2021/09/20 10:04:10;;;;;;;6.43;4.43;;;;;;;;;;5095617;28;20444;-58
2021/09/20 10:06:48;;;;;;;5.40;4.73;;;;;;;;;;5096414;28;20433;-56
2021/09/20 10:09:16;;;;;;;7.00;4.93;;;;;;;;;;5096908;28;20451;-56
2021/09/20 10:12:10;;;;;;;7.50;5.43;;;;;;;;;;5096684;28;20452;-55
2021/09/20 10:14:40;;;;;;;7.00;5.67;;;;;;;;;;5097123;28;20478;-56
2021/09/20 10:17:08;;;;;;;7.17;4.70;;;;;;;;;;5095807;28;20479;-59
2021/09/20 10:19:35;;;;;;;8.40;4.97;;;;;;;;;;5081172;28;20459;-53
2021/09/20 10:22:03;;;;;;;6.63;4.67;;;;;;;;;;5075701;28;20495;-58
2021/09/20 10:24:30;;;;;;;6.93;5.30;;;;;;;;;;5106860;28;20455;-51
2021/09/20 10:26:59;;;;;;;6.30;4.50;;;;;;;;;;5117645;28;20447;-60
2021/09/20 10:29:27;;;;;;;7.17;4.20;;;;;;;;;;5117684;28;20459;-56
2021/09/20 10:31:57;;;;;;;6.07;4.60;;;;;;;;;;5116016;28;20435;-53
2021/09/20 10:34:31;;;;;;;6.07;5.00;;;;;;;;;;5117341;28;20455;-58
2021/09/20 10:37:03;;;;;;;6.47;4.80;;;;;;;;;;5117357;28;20494;-58
2021/09/20 10:39:44;;;;;;;6.00;5.17;;;;;;;;;;5089897;28;20441;-53
2021/09/20 10:42:33;;;;;;;6.63;4.60;;;;;;;;;;5075899;28;20452;-57
2021/09/20 10:45:13;;;;;;;5.80;4.40;;;;;;;;;;5069183;28;20471;-60
2021/09/20 10:48:01;;;;;;;8.07;5.13;;;;;;;;;;5087247;28;20444;-50
2021/09/20 10:50:43;;;;;;;6.17;4.30;;;;;;;;;;5096200;28;20448;-56
2021/09/20 10:53:33;;;;;;;8.67;4.77;;;;;;;;;;5096443;28;20668;-55
2021/09/20 10:56:11;;;;;;;6.20;4.80;;;;;;;;;;5095124;28;20498;-59
2021/09/20 10:59:10;;;;;;;8.23;4.50;;;;;;;;;;5095657;28;20555;-51
2021/09/20 11:01:40;;;;;;;8.97;5.33;;;;;;;;;;5015055;28;20455;-59
2021/09/20 11:04:11;;;;;;;6.90;4.40;;;;;;;;;;5063075;28;20457;-57
2021/09/20 11:06:43;;;;;;;5.77;5.17;;;;;;;;;;5074882;28;20437;-59
2021/09/20 11:09:31;;;;;;;7.53;5.17;;;;;;;;;;5080094;28;20479;-57
2021/09/20 11:12:15;;;;;;;5.40;3.83;;;;;;;;;;5088106;28;20437;-54
2021/09/20 11:15:00;;;;;;;6.50;4.23;;;;;;;;;;5094577;28;20446;-57
2021/09/20 11:18:02;;;;;;;9.67;4.73;;;;;;;;;;5081432;28;20484;-56
2021/09/20 11:20:39;;;;;;;5.30;4.30;;;;;;;;;;5094315;28;20448;-58
2021/09/20 11:23:56;;;;;;;5.87;4.07;;;;;;;;;;5095156;28;20447;-60
2021/09/20 11:26:25;;;;;;;5.63;4.37;;;;;;;;;;5094731;28;20447;-59
2021/09/20 11:32:15;;;;;;;5.40;4.20;;;;;;;;;;5085822;28;20408;-56
2021/09/20 11:34:48;;;;;;;6.97;5.30;;;;;;;;;;5087352;28;20527;-59
2021/09/20 11:37:49;;;;;;;8.63;5.27;;;;;;;;;;5090494;28;20480;-57
2021/09/20 11:40:17;;;;;;;6.60;4.63;;;;;;;;;;5087158;28;20475;-52
2021/09/20 11:42:47;;;;;;;7.93;4.80;;;;;;;;;;5093977;28;20444;-59
2021/09/20 11:45:27;;;;;;;6.50;5.10;;;;;;;;;;5093334;28;20448;-60
2021/09/20 11:47:55;;;;;;;5.10;3.93;;;;;;;;;;5105496;28;20487;-59
2021/09/20 11:50:24;;;;;;;6.80;5.33;;;;;;;;;;5113848;28;20451;-59
2021/09/20 11:53:13;;;;;;;5.50;4.50;;;;;;;;;;5106508;28;20471;-57
2021/09/20 11:55:45;;;;;;;7.30;4.50;;;;;;;;;;5106273;28;20448;-60
2021/09/20 11:58:29;;;;;;;5.30;4.37;;;;;;;;;;5112434;28;20502;-58
2021/09/20 12:00:57;;;;;;;9.63;5.80;;;;;;;;;;5111146;28;20538;-55
2021/09/20 12:03:27;;;;;;;9.80;5.47;;;;;;;;;;5113316;28;20490;-64
2021/09/20 12:09:06;;;;;;;6.10;4.57;;;;;;;;;;5105213;28;20433;-59
2021/09/20 12:11:33;;;;;;;5.37;4.17;;;;;;;;;;5102811;28;20511;-58
2021/09/20 12:14:10;;;;;;;6.10;4.80;;;;;;;;;;5093785;28;20456;-53
2021/09/20 12:16:38;;;;;;;8.57;5.73;;;;;;;;;;5110212;28;20443;-60
2021/09/20 12:19:05;;;;;;;4.80;3.90;;;;;;;;;;5114292;28;20480;-55
2021/09/20 12:21:44;;;;;;;8.00;6.23;;;;;;;;;;5094676;28;20452;-55
2021/09/20 12:24:11;;;;;;;5.37;4.37;;;;;;;;;;5093588;28;20529;-57
2021/09/20 12:26:38;;;;;;;9.13;4.70;;;;;;;;;;5095554;28;20455;-52
2021/09/20 12:29:09;;;;;;;11.10;4.83;;;;;;;;;;5113069;28;20431;-59
2021/09/20 12:31:41;;;;;;;6.20;4.50;;;;;;;;;;5114115;28;20455;-57
2021/09/20 12:34:11;;;;;;;6.33;4.80;;;;;;;;;;5114538;28;20431;-62
2021/09/20 12:36:51;;;;;;;4.80;4.13;;;;;;;;;;5107879;28;20471;-59
2021/09/20 12:39:21;;;;;;;6.83;4.10;;;;;;;;;;5094914;28;20467;-63
2021/09/20 12:41:50;;;;;;;5.67;3.80;;;;;;;;;;5094497;28;20460;-58
2021/09/20 12:44:36;;;;;;;6.10;4.90;;;;;;;;;;5094025;28;20452;-55
2021/09/20 12:47:17;;;;;;;6.70;5.10;;;;;;;;;;5106674;28;20479;-57
2021/09/20 12:49:59;;;;;;;6.47;4.27;;;;;;;;;;5114938;28;20435;-54
2021/09/20 12:52:29;;;;;;;5.73;4.73;;;;;;;;;;5114215;28;20462;-58
2021/09/20 12:54:57;;;;;;;7.67;6.10;;;;;;;;;;5113983;28;20462;-53
2021/09/20 12:57:27;;;;;;;7.97;6.40;;;;;;;;;;5109045;28;20463;-57
2021/09/20 13:00:01;;;;;;;5.80;4.50;;;;;;;;;;5113421;28;20454;-57
2021/09/20 13:02:37;;;;;;;6.17;4.47;;;;;;;;;;5103542;28;20459;-56
2021/09/20 13:05:08;;;;;;;8.07;5.00;;;;;;;;;;5100533;28;20490;-56
2021/09/20 13:07:39;;;;;;;6.30;4.70;;;;;;;;;;5097610;28;20452;-58
2021/09/20 13:10:08;;;;;;;8.77;6.47;;;;;;;;;;5097373;28;20512;-58
2021/09/20 13:12:38;;;;;;;5.13;4.30;;;;;;;;;;5111172;28;20443;-53
2021/09/20 13:15:07;;;;;;;7.93;5.23;;;;;;;;;;5109402;28;20461;-58
2021/09/20 13:17:56;;;;;;;5.53;4.30;;;;;;;;;;5112168;28;20542;-57
2021/09/20 13:23:36;;;;;;;5.90;4.10;;;;;;;;;;5097549;28;20878;-54
2021/09/20 13:26:08;;;;;;;6.13;4.50;;;;;;;;;;5109608;28;20460;-59
2021/09/20 13:28:42;;;;;;;5.87;4.50;;;;;;;;;;5111755;28;20557;-59
2021/09/20 13:31:19;;;;;;;7.20;4.47;;;;;;;;;;5113178;28;20455;-56
2021/09/20 13:33:48;;;;;;;5.80;4.30;;;;;;;;;;5092617;28;20467;-60
2021/09/20 13:36:21;;;;;;;9.00;4.17;;;;;;;;;;5096723;28;20451;-57
2021/09/20 13:38:50;;;;;;;4.67;4.00;;;;;;;;;;5114582;28;20482;-58
2021/09/20 13:41:21;;;;;;;6.10;5.07;;;;;;;;;;5105106;28;20448;-59
2021/09/20 13:43:53;;;;;;;6.43;5.40;;;;;;;;;;5077769;28;20452;-55
2021/09/20 13:46:22;;;;;;;13.03;4.30;;;;;;;;;;5096012;28;20566;-57
2021/09/20 13:48:53;;;;;;;6.83;4.10;;;;;;;;;;5096214;28;20490;-54
2021/09/20 13:51:38;;;;;;;6.57;4.50;;;;;;;;;;5097132;28;20502;-53
2021/09/20 13:54:09;;;;;;;5.43;4.20;;;;;;;;;;5102780;28;20444;-54
2021/09/20 13:56:38;;;;;;;5.53;3.97;;;;;;;;;;5116560;28;20462;-59
2021/09/20 13:59:10;;;;;;;7.17;4.97;;;;;;;;;;5114114;28;20466;-59
2021/09/20 14:01:59;;;;;;;7.90;4.30;;;;;;;;;;5152474;27;20518;-56
2021/09/20 14:04:59;;;;;;;5.80;4.20;;;;;;;;;;5157170;27;20467;-56
2021/09/20 14:07:37;;;;;;;4.73;3.93;;;;;;;;;;5145341;27;20458;-59
2021/09/20 14:10:23;;;;;;;4.97;2.93;;;;;;;;;;5136185;28;20493;-59
2021/09/20 14:12:56;;;;;;;4.63;3.70;;;;;;;;;;5119210;27;20484;-56
2021/09/20 14:15:26;;;;;;;5.83;3.70;;;;;;;;;;5156807;27;20475;-56
2021/09/20 14:18:17;;;;;;;5.30;3.73;;;;;;;;;;5157985;27;20478;-59
2021/09/20 14:20:45;;;;;;;4.30;3.27;;;;;;;;;;5158557;27;20529;-57
2021/09/20 14:23:21;;;;;;;4.40;3.23;;;;;;;;;;5148471;27;20451;-61
2021/09/20 14:26:21;;;;;;;6.40;3.83;;;;;;;;;;5143276;27;20626;-55
2021/09/20 14:28:49;;;;;;;7.17;4.93;;;;;;;;;;5157264;27;20453;-60
2021/09/20 14:31:17;;;;;;;3.73;3.00;;;;;;;;;;5157034;27;20456;-60
2021/09/20 14:33:54;;;;;;;4.77;3.50;;;;;;;;;;5157227;27;20456;-60
2021/09/20 14:36:22;;;;;;;6.43;3.97;;;;;;;;;;5156029;27;20437;-57
2021/09/20 14:39:10;;;;;;;7.63;4.97;;;;;;;;;;5156674;27;20493;-59
2021/09/20 14:41:37;;;;;;;5.17;3.73;;;;;;;;;;5156094;27;20448;-58
2021/09/20 14:44:05;;;;;;;4.87;3.90;;;;;;;;;;5155560;27;20445;-58
2021/09/20 14:46:39;;;;;;;5.40;3.87;;;;;;;;;;5136380;28;20458;-57
2021/09/20 14:49:26;;;;;;;4.87;3.83;;;;;;;;;;5152527;27;20449;-56
2021/09/20 14:52:07;;;;;;;5.63;3.70;;;;;;;;;;5154022;27;20438;-60
2021/09/20 14:57:36;;;;;;;5.47;3.43;;;;;;;;;;5155287;27;20474;-61
2021/09/20 15:00:07;;;;;;;11.67;7.67;;;;;;;;;;5156317;27;20458;-58
2021/09/20 15:02:35;;;;;;;4.50;3.50;;;;;;;;;;5156109;27;20478;-61
2021/09/20 15:05:19;;;;;;;4.40;3.30;;;;;;;;;;5155898;27;20476;-59
2021/09/20 15:10:50;;;;;;;4.70;3.27;;;;;;;;;;5141811;27;20449;-56
2021/09/20 15:13:20;;;;;;;4.77;3.80;;;;;;;;;;5156760;27;20484;-56
2021/09/20 15:15:49;;;;;;;12.10;8.20;;;;;;;;;;5156826;27;20735;-59
2021/09/20 15:18:17;;;;;;;12.43;8.23;;;;;;;;;;5156823;27;20549;-57
2021/09/20 15:20:50;;;;;;;19.30;14.20;;;;;;;;;;5156793;27;20458;-59
2021/09/20 15:26:21;;;;;;;11.80;7.70;;;;;;;;;;5156311;27;20427;-56
2021/09/20 15:28:51;;;;;;;13.47;8.03;;;;;;;;;;5156496;27;20449;-57
2021/09/20 15:31:36;;;;;;;5.43;4.20;;;;;;;;;;5155187;27;20457;-53
2021/09/20 15:34:04;;;;;;;24.80;14.20;;;;;;;;;;5137563;27;20524;-59
2021/09/20 15:36:31;;;;;;;13.13;8.70;;;;;;;;;;5145285;27;20468;-52
2021/09/20 15:38:59;;;;;;;102.80;76.53;;;;;;;;;;5129554;28;20482;-57
2021/09/20 15:41:30;;;;;;;6.70;3.70;;;;;;;;;;5134888;28;20465;-55
2021/09/20 15:44:01;;;;;;;5.97;4.23;;;;;;;;;;5149204;27;20553;-60
2021/09/20 15:46:30;;;;;;;4.67;3.63;;;;;;;;;;5151839;27;20561;-62
2021/09/20 15:48:59;;;;;;;5.93;3.63;;;;;;;;;;5154006;27;20468;-59
2021/09/20 15:51:41;;;;;;;6.43;5.10;;;;;;;;;;5152816;27;20481;-59
2021/09/20 15:54:11;;;;;;;5.40;3.40;;;;;;;;;;5151119;27;20445;-60
2021/09/20 15:56:41;;;;;;;21.53;15.53;;;;;;;;;;5153411;27;20446;-59
2021/09/20 15:59:11;;;;;;;4.20;3.40;;;;;;;;;;5145899;27;20493;-55
2021/09/20 16:01:42;;;;;;;4.87;3.60;;;;;;;;;;5151739;27;20487;-57
2021/09/20 16:04:26;;;;;;;5.87;3.57;;;;;;;;;;5155926;27;20483;-58
2021/09/20 16:06:54;;;;;;;5.03;3.50;;;;;;;;;;5154155;27;20456;-58
2021/09/20 16:09:22;;;;;;;24.07;17.93;;;;;;;;;;5154466;27;20457;-54